createdAt,value
2022-09-01T00:00:23.768Z,84.27
2022-09-01T00:02:53.582Z,84.00
2022-09-01T00:05:26.296Z,84.62
2022-09-01T00:07:55.900Z,84.46
2022-09-01T00:10:25.595Z,84.25
2022-09-01T00:12:55.233Z,84.29
2022-09-01T00:15:25.310Z,84.23
2022-09-01T00:17:54.948Z,84.81
2022-09-01T00:20:27.197Z,84.49
2022-09-01T00:22:56.884Z,84.60
2022-09-01T00:25:28.098Z,85.50
2022-09-01T00:28:00.458Z,85.06
2022-09-01T00:30:30.202Z,84.66
2022-09-01T00:32:59.832Z,84.46
2022-09-01T00:35:32.091Z,84.30
2022-09-01T00:38:07.361Z,84.39
2022-09-01T00:40:37.160Z,84.42
2022-09-01T00:43:15.199Z,84.38
2022-09-01T00:45:44.946Z,83.88
2022-09-01T00:48:15.176Z,84.15
2022-09-01T00:50:49.542Z,84.13
2022-09-01T00:53:24.189Z,84.20
2022-09-01T00:55:54.054Z,84.13
2022-09-01T00:58:24.138Z,84.03
2022-09-01T01:00:55.852Z,83.72
2022-09-01T01:03:26.182Z,83.60
2022-09-01T01:06:01.543Z,83.89
2022-09-01T01:08:34.958Z,83.54
2022-09-01T01:11:08.895Z,83.60
2022-09-01T01:13:51.683Z,83.83
2022-09-01T01:16:21.935Z,84.35
2022-09-01T01:18:51.708Z,84.02
2022-09-01T01:21:40.721Z,83.10
2022-09-01T01:24:24.645Z,83.39
2022-09-01T01:26:55.126Z,83.92
2022-09-01T01:29:26.581Z,83.81
2022-09-01T01:31:56.255Z,83.58
2022-09-01T01:34:25.960Z,83.21
2022-09-01T01:37:01.854Z,83.70
2022-09-01T01:39:34.235Z,83.84
2022-09-01T01:42:04.304Z,83.65
2022-09-01T01:44:33.988Z,83.74
2022-09-01T01:47:08.581Z,84.96
2022-09-01T01:49:42.060Z,84.56
2022-09-01T01:52:12.223Z,84.40
2022-09-01T01:54:46.261Z,84.93
2022-09-01T01:57:18.125Z,84.57
2022-09-01T01:59:48.436Z,84.37
2022-09-01T02:02:18.654Z,84.50
2022-09-01T02:04:48.311Z,84.26
2022-09-01T02:07:18.387Z,84.38
2022-09-01T02:09:50.730Z,84.91
2022-09-01T02:12:21.414Z,84.73
2022-09-01T02:14:52.808Z,84.65
2022-09-01T02:17:22.412Z,85.11
2022-09-01T02:19:56.389Z,85.86
2022-09-01T02:22:26.012Z,85.25
2022-09-01T02:24:58.229Z,85.01
2022-09-01T02:27:29.683Z,84.81
2022-09-01T02:29:59.260Z,84.75
2022-09-01T02:32:28.921Z,85.29
2022-09-01T02:35:01.480Z,85.08
2022-09-01T02:37:31.232Z,85.17
2022-09-01T02:40:03.602Z,84.86
2022-09-01T02:42:33.290Z,84.51
2022-09-01T02:45:03.425Z,83.93
2022-09-01T02:47:33.286Z,84.73
2022-09-01T02:50:03.747Z,85.38
2022-09-01T02:52:37.653Z,85.73
2022-09-01T02:55:11.920Z,86.61
2022-09-01T02:57:41.650Z,86.62
2022-09-01T03:00:21.012Z,87.62
2022-09-01T03:02:54.099Z,87.18
2022-09-01T03:05:27.247Z,85.87
2022-09-01T03:08:00.573Z,85.50
2022-09-01T03:10:36.380Z,85.35
2022-09-01T03:13:08.412Z,85.03
2022-09-01T03:15:39.139Z,84.99
2022-09-01T03:18:10.774Z,85.16
2022-09-01T03:20:43.445Z,84.86
2022-09-01T03:23:14.930Z,85.19
2022-09-01T03:25:52.046Z,85.51
2022-09-01T03:28:21.804Z,85.81
2022-09-01T03:30:54.550Z,85.78
2022-09-01T03:33:26.210Z,85.18
2022-09-01T03:35:56.261Z,85.18
2022-09-01T03:38:26.900Z,85.00
2022-09-01T03:41:02.889Z,84.79
2022-09-01T03:43:35.908Z,83.93
2022-09-01T03:46:06.809Z,84.02
2022-09-01T03:48:36.468Z,84.10
2022-09-01T03:51:06.406Z,83.71
2022-09-01T03:53:39.397Z,83.54
2022-09-01T03:56:11.825Z,83.40
2022-09-01T03:58:42.894Z,84.83
2022-09-01T04:01:13.771Z,85.13
2022-09-01T04:03:49.185Z,84.96
2022-09-01T04:06:22.110Z,84.75
2022-09-01T04:08:52.941Z,84.86
2022-09-01T04:11:26.518Z,84.71
2022-09-01T04:13:56.386Z,84.48
2022-09-01T04:16:40.865Z,84.30
2022-09-01T04:19:20.455Z,83.86
2022-09-01T04:21:51.833Z,84.17
2022-09-01T04:24:24.032Z,84.00
2022-09-01T04:26:58.769Z,84.16
2022-09-01T04:29:30.013Z,84.21
2022-09-01T04:32:02.364Z,83.89
2022-09-01T04:34:37.970Z,84.31
2022-09-01T04:37:13.094Z,83.80
2022-09-01T04:39:52.571Z,83.45
2022-09-01T04:42:30.012Z,83.48
2022-09-01T04:45:08.977Z,83.92
2022-09-01T04:47:42.378Z,84.47
2022-09-01T04:50:17.690Z,83.95
2022-09-01T04:52:48.334Z,83.95
2022-09-01T04:55:20.253Z,83.98
2022-09-01T04:57:53.356Z,83.48
2022-09-01T05:00:28.034Z,83.88
2022-09-01T05:03:04.792Z,83.41
2022-09-01T05:05:43.089Z,84.01
2022-09-01T05:08:14.651Z,84.74
2022-09-01T05:10:56.899Z,86.16
2022-09-01T05:13:29.970Z,86.47
2022-09-01T05:16:06.201Z,86.23
2022-09-01T05:18:36.251Z,86.62
2022-09-01T05:21:11.297Z,86.24
2022-09-01T05:23:41.344Z,86.41
2022-09-01T05:26:18.088Z,86.19
2022-09-01T05:28:53.884Z,86.54
2022-09-01T05:31:24.108Z,87.58
2022-09-01T05:33:54.634Z,86.98
2022-09-01T05:36:26.903Z,86.53
2022-09-01T05:38:57.160Z,85.82
2022-09-01T05:41:26.842Z,85.92
2022-09-01T05:44:00.818Z,86.48
2022-09-01T05:46:31.114Z,87.12
2022-09-01T05:49:00.882Z,87.09
2022-09-01T05:51:44.202Z,87.66
2022-09-01T05:54:16.498Z,87.64
2022-09-01T05:56:46.644Z,87.54
2022-09-01T05:59:24.378Z,88.32
2022-09-01T06:01:55.511Z,87.58
2022-09-01T06:04:27.893Z,87.09
2022-09-01T06:07:06.622Z,87.76
2022-09-01T06:09:41.016Z,87.49
2022-09-01T06:12:17.884Z,87.94
2022-09-01T06:14:53.122Z,88.05
2022-09-01T06:17:25.407Z,88.51
2022-09-01T06:19:56.344Z,86.90
2022-09-01T06:22:28.137Z,86.19
2022-09-01T06:25:02.284Z,86.68
2022-09-01T06:27:32.285Z,86.21
2022-09-01T06:30:05.008Z,85.46
2022-09-01T06:32:38.696Z,85.61
2022-09-01T06:35:09.434Z,84.77
2022-09-01T06:37:39.053Z,82.97
2022-09-01T06:40:10.931Z,81.43
2022-09-01T06:42:41.365Z,80.58
2022-09-01T06:45:15.165Z,79.85
2022-09-01T06:47:47.343Z,80.26
2022-09-01T06:56:02.999Z,77.76
2022-09-01T06:58:33.396Z,78.31
2022-09-01T07:01:09.677Z,76.43
2022-09-01T07:03:40.180Z,76.44
2022-09-01T07:06:59.091Z,74.95
2022-09-01T07:12:24.886Z,75.37
2022-09-01T07:17:34.896Z,73.64
2022-09-01T07:23:10.970Z,73.04
2022-09-01T07:26:02.327Z,71.07
2022-09-01T07:28:36.786Z,70.06
2022-09-01T07:38:47.433Z,68.34
2022-09-01T07:39:52.148Z,68.32
2022-09-01T07:45:30.863Z,67.21
2022-09-01T07:48:03.706Z,66.79
2022-09-01T07:50:40.921Z,67.46
2022-09-01T07:53:29.848Z,68.13
2022-09-01T07:55:59.958Z,69.21
2022-09-01T07:58:33.478Z,69.68
2022-09-01T08:01:04.296Z,69.09
2022-09-01T08:03:33.948Z,69.34
2022-09-01T08:06:10.658Z,68.04
2022-09-01T08:08:41.725Z,69.64
2022-09-01T08:11:11.968Z,69.81
2022-09-01T08:13:42.195Z,70.42
2022-09-01T08:16:18.154Z,67.94
2022-09-01T08:18:49.841Z,68.87
2022-09-01T08:21:24.432Z,68.83
2022-09-01T08:23:55.902Z,68.60
2022-09-01T08:26:28.713Z,67.17
2022-09-01T08:28:58.971Z,67.59
2022-09-01T08:31:31.232Z,69.02
2022-09-01T08:34:02.803Z,68.22
2022-09-01T08:36:35.536Z,68.74
2022-09-01T08:39:05.618Z,68.86
2022-09-01T08:41:46.374Z,66.05
2022-09-01T08:44:28.782Z,66.42
2022-09-01T08:47:04.940Z,64.84
2022-09-01T08:49:44.353Z,64.11
2022-09-01T08:52:25.637Z,62.63
2022-09-01T08:55:01.586Z,63.60
2022-09-01T08:57:36.336Z,64.33
2022-09-01T09:00:09.968Z,63.81
2022-09-01T09:02:54.130Z,64.58
2022-09-01T09:05:32.914Z,66.26
2022-09-01T09:08:41.054Z,65.92
2022-09-01T09:11:22.836Z,65.54
2022-09-01T09:14:03.485Z,66.80
2022-09-01T09:16:38.605Z,65.72
2022-09-01T09:19:11.697Z,64.90
2022-09-01T09:21:43.855Z,64.57
2022-09-01T09:24:23.327Z,65.66
2022-09-01T09:26:53.235Z,65.06
2022-09-01T09:29:23.522Z,65.35
2022-09-01T09:32:06.461Z,65.36
2022-09-01T09:34:39.052Z,65.11
2022-09-01T09:37:28.562Z,63.78
2022-09-01T09:40:15.227Z,63.76
2022-09-01T09:43:02.081Z,63.39
2022-09-01T09:45:34.345Z,63.06
2022-09-01T09:48:10.981Z,62.12
2022-09-01T09:50:43.384Z,62.68
2022-09-01T09:53:20.501Z,63.37
2022-09-01T09:56:07.564Z,61.98
2022-09-01T09:58:40.425Z,61.90
2022-09-01T10:01:17.716Z,62.43
2022-09-01T10:03:50.433Z,59.59
2022-09-01T10:06:35.334Z,61.04
2022-09-01T10:09:08.014Z,61.24
2022-09-01T10:11:45.006Z,60.33
2022-09-01T10:14:51.624Z,59.54
2022-09-01T10:17:15.666Z,59.73
2022-09-01T10:19:52.095Z,59.67
2022-09-01T10:22:22.497Z,61.56
2022-09-01T10:24:52.223Z,61.44
2022-09-01T10:27:27.426Z,61.21
2022-09-01T10:30:19.288Z,60.95
2022-09-01T10:32:55.801Z,60.46
2022-09-01T10:35:29.811Z,60.43
2022-09-01T10:38:01.853Z,59.74
2022-09-01T10:40:43.754Z,59.89
2022-09-01T10:43:45.361Z,57.20
2022-09-01T10:46:51.002Z,57.21
2022-09-01T10:49:53.161Z,58.50
2022-09-01T10:52:53.734Z,56.82
2022-09-01T10:55:26.566Z,56.94
2022-09-01T11:02:22.966Z,57.50
2022-09-01T11:05:14.326Z,58.49
2022-09-01T11:08:03.065Z,58.35
2022-09-01T11:11:03.268Z,57.60
2022-09-01T11:13:40.178Z,55.50
2022-09-01T11:16:48.079Z,52.64
2022-09-01T11:19:30.643Z,54.83
2022-09-01T11:22:13.050Z,54.62
2022-09-01T11:25:00.126Z,55.65
2022-09-01T11:28:00.321Z,54.96
2022-09-01T11:30:38.862Z,53.02
2022-09-01T11:33:27.163Z,50.97
2022-09-01T11:36:03.009Z,50.74
2022-09-01T11:38:41.867Z,52.09
2022-09-01T11:41:11.530Z,51.68
2022-09-01T11:43:41.358Z,52.02
2022-09-01T11:46:21.214Z,51.60
2022-09-01T11:48:53.639Z,50.07
2022-09-01T11:51:24.035Z,49.35
2022-09-01T11:54:01.057Z,48.54
2022-09-01T11:56:31.991Z,49.06
2022-09-01T11:59:57.159Z,48.66
2022-09-01T12:02:33.812Z,48.44
2022-09-01T12:05:27.282Z,48.90
2022-09-01T12:07:57.877Z,48.48
2022-09-01T12:10:34.573Z,48.46
2022-09-01T12:13:07.105Z,48.57
2022-09-01T12:16:00.438Z,48.09
2022-09-01T12:20:34.373Z,46.88
2022-09-01T12:23:04.398Z,49.19
2022-09-01T12:25:35.858Z,48.75
2022-09-01T12:28:07.666Z,46.96
2022-09-01T12:30:41.866Z,47.45
2022-09-01T12:33:24.195Z,48.26
2022-09-01T12:36:17.854Z,47.49
2022-09-01T12:38:47.447Z,48.94
2022-09-01T12:41:35.656Z,49.08
2022-09-01T12:44:30.470Z,49.03
2022-09-01T12:47:02.655Z,47.12
2022-09-01T12:49:50.108Z,46.78
2022-09-01T12:52:28.545Z,46.52
2022-09-01T12:55:47.440Z,47.64
2022-09-01T12:58:07.700Z,47.01
2022-09-01T13:02:36.938Z,48.53
2022-09-01T13:05:33.611Z,47.63
2022-09-01T13:08:07.637Z,48.23
2022-09-01T13:10:41.198Z,47.28
2022-09-01T13:13:14.724Z,46.81
2022-09-01T13:15:48.327Z,46.97
2022-09-01T13:18:22.831Z,47.00
2022-09-01T13:20:53.495Z,47.50
2022-09-01T13:23:24.163Z,47.20
2022-09-01T13:25:54.076Z,46.34
2022-09-01T13:36:47.027Z,47.65
2022-09-01T13:39:20.295Z,47.75
2022-09-01T13:41:50.264Z,46.77
2022-09-01T13:44:21.021Z,47.99
2022-09-01T13:50:05.424Z,47.94
2022-09-01T13:52:33.081Z,48.07
2022-09-01T13:55:02.821Z,47.59
2022-09-01T13:57:36.357Z,47.97
2022-09-01T14:00:10.895Z,47.79
2022-09-01T14:02:41.309Z,48.77
2022-09-01T14:05:13.774Z,48.09
2022-09-01T14:07:43.437Z,48.30
2022-09-01T14:10:14.401Z,47.30
2022-09-01T14:12:45.894Z,48.63
2022-09-01T14:15:20.737Z,48.20
2022-09-01T14:17:56.253Z,47.23
2022-09-01T14:20:33.381Z,48.03
2022-09-01T14:23:07.743Z,48.60
2022-09-01T14:25:38.322Z,49.61
2022-09-01T14:28:08.082Z,48.34
2022-09-01T14:30:38.027Z,48.60
2022-09-01T14:33:07.972Z,47.21
2022-09-01T14:35:41.889Z,48.00
2022-09-01T14:38:13.636Z,48.38
2022-09-01T14:40:44.868Z,47.77
2022-09-01T14:43:15.513Z,48.62
2022-09-01T14:45:48.457Z,47.44
2022-09-01T14:48:18.983Z,48.34
2022-09-01T14:50:51.768Z,46.95
2022-09-01T14:53:22.270Z,47.75
2022-09-01T14:55:55.640Z,48.82
2022-09-01T14:58:27.557Z,48.51
2022-09-01T15:01:07.372Z,48.00
2022-09-01T15:03:48.061Z,47.37
2022-09-01T15:06:25.029Z,47.80
2022-09-01T15:08:54.700Z,47.31
2022-09-01T15:11:24.383Z,48.45
2022-09-01T15:13:54.454Z,49.14
2022-09-01T15:16:26.407Z,48.89
2022-09-01T15:18:56.447Z,49.30
2022-09-01T15:21:33.499Z,48.90
2022-09-01T15:24:04.337Z,47.65
2022-09-01T15:26:34.174Z,47.50
2022-09-01T15:29:04.707Z,47.69
2022-09-01T15:31:35.061Z,47.53
2022-09-01T15:34:06.440Z,47.74
2022-09-01T15:36:44.533Z,47.60
2022-09-01T15:39:14.746Z,48.07
2022-09-01T15:41:47.532Z,47.67
2022-09-01T15:44:17.169Z,47.75
2022-09-01T15:46:46.821Z,47.68
2022-09-01T15:49:18.166Z,48.68
2022-09-01T15:51:50.415Z,47.69
2022-09-01T15:54:25.129Z,48.18
2022-09-01T15:56:57.944Z,48.28
2022-09-01T15:59:29.227Z,48.99
2022-09-01T16:01:59.633Z,48.52
2022-09-01T16:04:29.389Z,49.26
2022-09-01T16:07:01.600Z,49.28
2022-09-01T16:09:31.224Z,48.97
2022-09-01T16:12:00.970Z,48.72
2022-09-01T16:14:32.147Z,48.57
2022-09-01T16:17:06.665Z,48.47
2022-09-01T16:19:44.516Z,47.99
2022-09-01T16:22:22.661Z,48.33
2022-09-01T16:24:54.574Z,48.91
2022-09-01T16:27:32.131Z,48.58
2022-09-01T16:30:08.158Z,49.77
2022-09-01T16:32:37.835Z,50.56
2022-09-01T16:35:08.582Z,51.09
2022-09-01T16:37:51.427Z,51.15
2022-09-01T16:40:34.426Z,50.93
2022-09-01T16:43:12.545Z,51.24
2022-09-01T16:45:54.240Z,51.12
2022-09-01T16:48:32.451Z,51.00
2022-09-01T16:51:13.124Z,51.15
2022-09-01T16:54:02.728Z,51.18
2022-09-01T16:56:36.038Z,51.47
2022-09-01T17:01:56.521Z,51.42
2022-09-01T17:04:38.328Z,51.45
2022-09-01T17:07:29.592Z,51.23
2022-09-01T17:10:07.394Z,51.18
2022-09-01T17:12:43.785Z,51.71
2022-09-01T17:15:18.213Z,51.32
2022-09-01T17:17:54.763Z,51.58
2022-09-01T17:20:30.842Z,51.22
2022-09-01T17:23:08.781Z,51.41
2022-09-01T17:25:46.461Z,50.92
2022-09-01T17:28:21.149Z,50.89
2022-09-01T17:30:56.348Z,51.28
2022-09-01T17:33:31.290Z,51.51
2022-09-01T17:36:16.698Z,51.51
2022-09-01T17:38:54.330Z,51.10
2022-09-01T17:41:38.555Z,51.50
2022-09-01T17:44:21.268Z,51.35
2022-09-01T17:47:05.070Z,51.50
2022-09-01T17:49:41.497Z,52.08
2022-09-01T17:52:19.181Z,51.93
2022-09-01T17:54:59.603Z,51.93
2022-09-01T17:57:38.011Z,52.97
2022-09-01T18:00:23.137Z,52.81
2022-09-01T18:03:07.363Z,52.72
2022-09-01T18:05:42.869Z,52.93
2022-09-01T18:08:29.574Z,53.29
2022-09-01T18:11:02.889Z,53.83
2022-09-01T18:13:53.830Z,53.65
2022-09-01T18:16:27.395Z,54.45
2022-09-01T18:19:00.144Z,53.82
2022-09-01T18:21:35.206Z,54.68
2022-09-01T18:24:14.365Z,55.59
2022-09-01T18:26:47.764Z,54.67
2022-09-01T18:29:21.453Z,55.51
2022-09-01T18:32:11.502Z,54.45
2022-09-01T18:35:11.568Z,54.76
2022-09-01T18:37:53.854Z,55.31
2022-09-01T18:40:31.533Z,56.05
2022-09-01T18:43:09.488Z,56.77
2022-09-01T18:45:51.111Z,56.79
2022-09-01T18:48:33.433Z,56.66
2022-09-01T18:51:09.537Z,55.79
2022-09-01T18:53:51.128Z,55.50
2022-09-01T18:56:36.906Z,54.78
2022-09-01T18:59:32.093Z,54.94
2022-09-01T19:02:22.291Z,54.91
2022-09-01T19:04:56.361Z,55.52
2022-09-01T19:07:36.888Z,54.89
2022-09-01T19:10:18.540Z,55.23
2022-09-01T19:12:58.166Z,54.49
2022-09-01T19:15:36.546Z,54.48
2022-09-01T19:18:15.477Z,54.59
2022-09-01T19:20:52.623Z,54.96
2022-09-01T19:23:27.025Z,54.42
2022-09-01T19:26:04.777Z,54.59
2022-09-01T19:28:43.239Z,54.67
2022-09-01T19:31:24.004Z,53.80
2022-09-01T19:34:00.199Z,54.23
2022-09-01T19:36:38.953Z,54.34
2022-09-01T19:39:10.691Z,54.75
2022-09-01T19:41:46.176Z,54.28
2022-09-01T19:44:25.529Z,54.33
2022-09-01T19:47:00.987Z,55.67
2022-09-01T19:49:43.275Z,54.85
2022-09-01T19:52:21.236Z,55.59
2022-09-01T19:54:57.170Z,55.62
2022-09-01T19:57:35.393Z,56.89
2022-09-01T20:00:11.936Z,56.74
2022-09-01T20:02:49.594Z,57.21
2022-09-01T20:05:31.323Z,57.33
2022-09-01T20:08:05.207Z,57.65
2022-09-01T20:11:00.012Z,57.71
2022-09-01T20:13:49.295Z,57.88
2022-09-01T20:16:29.103Z,58.33
2022-09-01T20:19:04.898Z,58.74
2022-09-01T20:21:40.141Z,59.13
2022-09-01T20:24:14.599Z,59.96
2022-09-01T20:26:52.020Z,60.02
2022-09-01T20:29:29.044Z,60.98
2022-09-01T20:32:01.673Z,61.29
2022-09-01T20:34:37.932Z,61.62
2022-09-01T20:37:16.669Z,61.46
2022-09-01T20:40:08.874Z,61.61
2022-09-01T20:42:51.247Z,61.50
2022-09-01T20:45:22.744Z,61.50
2022-09-01T20:47:58.016Z,60.65
2022-09-01T20:50:34.440Z,61.89
2022-09-01T20:53:24.272Z,62.48
2022-09-01T20:56:00.521Z,63.11
2022-09-01T20:58:35.464Z,63.08
2022-09-01T21:01:18.030Z,63.01
2022-09-01T21:03:56.543Z,62.85
2022-09-01T21:06:36.113Z,63.28
2022-09-01T21:09:17.225Z,63.78
2022-09-01T21:11:51.003Z,63.93
2022-09-01T21:14:35.460Z,63.51
2022-09-01T21:17:12.753Z,63.70
2022-09-01T21:19:51.885Z,63.44
2022-09-01T21:22:22.524Z,63.95
2022-09-01T21:24:54.920Z,64.15
2022-09-01T21:27:26.692Z,64.69
2022-09-01T21:30:00.237Z,63.77
2022-09-01T21:32:31.804Z,63.89
2022-09-01T21:35:01.700Z,64.81
2022-09-01T21:37:31.802Z,64.70
2022-09-01T21:40:04.138Z,65.16
2022-09-01T21:42:38.566Z,64.51
2022-09-01T21:45:10.500Z,64.56
2022-09-01T21:47:40.866Z,64.84
2022-09-01T21:50:11.862Z,64.85
2022-09-01T21:52:41.926Z,63.66
2022-09-01T21:55:16.632Z,64.18
2022-09-01T21:57:48.184Z,64.29
2022-09-01T22:00:20.642Z,64.58
2022-09-01T22:02:50.339Z,64.74
2022-09-01T22:05:20.154Z,64.73
2022-09-01T22:07:50.845Z,65.14
2022-09-01T22:10:25.476Z,65.06
2022-09-01T22:12:56.148Z,65.10
2022-09-01T22:15:28.120Z,66.17
2022-09-01T22:17:59.429Z,66.01
2022-09-01T22:20:32.071Z,65.26
2022-09-01T22:23:02.222Z,65.79
2022-09-01T22:25:35.896Z,65.39
2022-09-01T22:28:08.155Z,66.24
2022-09-01T22:30:38.807Z,67.07
2022-09-01T22:33:08.506Z,67.09
2022-09-01T22:35:43.689Z,66.91
2022-09-01T22:38:14.377Z,67.07
2022-09-01T22:40:51.947Z,67.12
2022-09-01T22:43:22.224Z,67.53
2022-09-01T22:45:53.565Z,68.50
2022-09-01T22:48:27.117Z,68.39
2022-09-01T22:50:57.083Z,68.01
2022-09-01T22:53:26.732Z,68.04
2022-09-01T22:55:58.959Z,67.29
2022-09-01T22:58:28.548Z,66.56
2022-09-01T23:03:35.241Z,67.17
2022-09-01T23:06:07.511Z,67.63
2022-09-01T23:08:37.435Z,68.21
2022-09-01T23:11:10.722Z,68.86
2022-09-01T23:13:41.385Z,68.41
2022-09-01T23:16:13.696Z,69.76
2022-09-01T23:18:46.442Z,69.71
2022-09-01T23:21:17.969Z,70.01
2022-09-01T23:23:48.098Z,69.86
2022-09-01T23:26:32.128Z,70.96
2022-09-01T23:29:02.167Z,70.46
2022-09-01T23:31:37.561Z,69.85
2022-09-01T23:34:09.018Z,69.87
2022-09-01T23:36:39.556Z,70.33
2022-09-01T23:39:09.856Z,70.24
2022-09-01T23:41:42.202Z,71.33
2022-09-01T23:44:14.416Z,70.74
2022-09-01T23:46:46.050Z,70.53
2022-09-01T23:49:17.578Z,70.71
2022-09-01T23:51:47.656Z,71.08
2022-09-01T23:54:18.331Z,70.22
2022-09-01T23:56:50.998Z,71.85
2022-09-01T23:59:27.419Z,71.22
